Vattmanville, Texas
Current Conditions -  °F | °C
As of 4:56 PM on Wednesday 22 Oct 2014 (Local Time) from KNQI Reporting Station
Scattered Clouds Scattered Clouds  
Wind Chill: 29°   Ceiling: Unl
Heat Index: 30°   Visibility: 10mi
Dew Point: 19°   Wind: 14mph
Humidity: 55%   Direction: 80°E
Pressure: 29.99"   Gusts: NA
Location:  27.3193°N, 97.8839°W
Report Text: KNQI 222156Z 08012KT 10SM SCT044 29/19 A2999 RMK AO2 SLP153 T02890189
Loading
Personal Weather Stations






























Interactive Weather Map
Tropical Storm Tracking
New forecast layout! Learn more

10-Day Weather Forecast

Advertisements
Track Severe Weather on mobile